Latest Weather Observations for Mortlake

IDV60801

Issued at 4:32 pm EDT Sunday 22 January 2017 (issued every 30 minutes, with the page automatically refreshed every 10 minutes)

About weather observations | Map of weather stations | Latest weather observations for VIC | Other Formats
Station Details ID: 090176 Name: MORTLAKE RACECOURSE Lat: -38.07 Lon: 142.77 Height: 130.0 m
Data from the previous 72 hours. | See also: Recent months at Mortlake
Date/Time
EDT
Temp
°C
App
Temp
°C
Dew
Point
°C
Rel
Hum
%
Delta-T
°C
Wind Press
QNH
hPa
Press
MSL
hPa
Rain since
9am
mm
Dir  Spd
km/h
Gust
km/h
Spd
kts
Gust
kts
22/04:30pm 31.1 29.3 12.0 31 11.3 SSE 13 20 7 11 1010.9 1010.6 0.0
22/04:00pm 31.4 29.8 12.7 32 11.2 SSE 13 19 7 10 1011.3 1011.0 0.0
22/03:30pm 31.5 30.5 12.3 31 11.4 SSE 9 22 5 12 1011.6 1011.3 0.0
22/03:00pm 31.2 30.1 12.1 31 11.3 ESE 9 17 5 9 1012.0 1011.7 0.0
22/02:30pm 30.6 29.8 11.1 30 11.3 ENE 6 13 3 7 1012.5 1012.2 0.0
22/02:00pm 30.2 29.2 10.2 29 11.4 ENE 6 9 3 5 1012.8 1012.5 0.0
22/01:30pm 29.1 27.9 10.3 31 10.7 SE 7 13 4 7 1013.2 1012.9 0.0
22/01:00pm 28.3 27.4 10.5 33 10.1 ESE 6 11 3 6 1013.5 1013.2 0.0
22/12:30pm 27.8 26.6 9.6 32 10.2 ESE 6 11 3 6 1013.9 1013.5 0.0
22/12:00pm 27.2 26.0 10.4 35 9.5 ENE 7 15 4 8 1014.2 1013.8 0.0
22/11:30am 26.0 24.5 10.6 38 8.7 ENE 9 15 5 8 1014.3 1013.9 0.0
22/11:00am 24.0 23.1 11.3 45 7.2 NE 7 15 4 8 1014.7 1014.3 0.0
22/10:30am 23.2 22.0 12.8 52 6.0 ENE 11 17 6 9 1015.0 1014.6 0.0
22/10:00am 21.2 19.6 12.9 59 4.7 ENE 13 19 7 10 1015.2 1014.8 0.0
22/09:30am 19.0 16.8 13.4 70 3.2 NE 17 20 9 11 1015.5 1015.2 0.0
22/09:00am 17.2 16.0 14.1 82 1.8 NE 13 19 7 10 1015.6 1015.3 0.0
22/08:30am 15.6 14.8 14.0 90 0.9 NE 11 17 6 9 1015.7 1015.4 0.0
22/08:00am 14.7 14.4 14.4 98 0.2 NE 9 19 5 10 1015.8 1015.5 0.0
22/07:30am 13.4 12.8 13.4 100 0.0 NE 9 17 5 9 1015.6 1015.3 0.0
22/07:00am 11.9 11.4 11.9 100 0.0 NNE 6 13 3 7 1015.8 1015.5 0.0
22/06:30am 10.7 9.2 10.7 100 0.0 NNE 9 11 5 6 1015.7 1015.4 0.0
22/06:00am 9.9 9.2 9.9 100 0.0 N 4 6 2 3 1015.9 1015.6 0.0
22/05:30am 10.6 9.1 10.6 100 0.0 N 9 13 5 7 1015.8 1015.5 0.0
22/05:00am 11.9 10.8 11.9 100 0.0 NNE 9 15 5 8 1015.4 1015.1 0.0
22/04:30am 12.1 11.0 12.1 100 0.0 NE 9 13 5 7 1015.4 1015.1 0.0
22/04:00am 10.8 10.3 10.8 100 0.0 ENE 4 7 2 4 1015.5 1015.2 0.0
22/03:30am 10.8 10.3 10.6 99 0.1 E 4 4 2 2 1015.4 1015.1 0.0
22/03:00am 11.1 10.6 10.9 99 0.1 E 4 6 2 3 1015.7 1015.4 0.0
22/02:30am 11.0 10.5 10.7 98 0.2 E 4 4 2 2 1015.9 1015.6 0.0
22/02:00am 11.3 10.5 11.0 98 0.2 E 6 9 3 5 1016.1 1015.8 0.0
22/01:30am 11.1 10.6 10.8 98 0.2 E 4 7 2 4 1016.4 1016.1 0.0
22/01:00am 10.4 9.6 9.8 96 0.3 SSE 4 6 2 3 1016.8 1016.5 0.0
22/12:30am 11.0 10.7 10.2 95 0.4 SSE 2 4 1 2 1017.2 1016.9 0.0
22/12:00am 10.4 9.9 9.3 93 0.6 SSE 2 4 1 2 1017.1 1016.8 0.0
 
Date/Time
EDT
Temp
°C
App
Temp
°C
Dew
Point
°C
Rel
Hum
%
Delta-T
°C
Wind Press
QNH
hPa
Press
MSL
hPa
Rain since
9am
mm
Dir  Spd
km/h
Gust
km/h
Spd
kts
Gust
kts
21/11:30pm 11.8 10.9 10.5 92 0.7 S 6 7 3 4 1017.1 1016.8 0.0
21/11:00pm 12.0 10.8 10.2 89 0.9 S 7 9 4 5 1017.2 1016.9 0.0
21/10:30pm 13.4 12.5 11.3 87 1.1 SSE 7 9 4 5 1017.0 1016.7 0.0
21/10:00pm 13.5 12.1 10.9 84 1.4 SSE 9 11 5 6 1016.9 1016.6 0.0
21/09:30pm 14.6 13.1 10.6 77 2.1 S 9 13 5 7 1016.7 1016.4 0.0
21/09:00pm 16.2 14.7 10.5 69 3.0 S 9 13 5 7 1016.6 1016.3 0.0
21/08:30pm 18.0 16.3 9.9 59 4.3 S 9 13 5 7 1016.5 1016.2 0.0
21/08:00pm 19.5 17.1 10.0 54 5.1 S 13 19 7 10 1015.9 1015.6 0.0
21/07:30pm 20.3 17.8 9.8 51 5.7 S 13 19 7 10 1015.6 1015.3 0.0
21/07:00pm 20.9 19.0 10.4 51 5.7 SSE 11 17 6 9 1015.3 1014.9 0.0
21/06:30pm 21.9 19.7 10.7 49 6.2 S 13 19 7 10 1015.2 1014.8 0.0
21/06:00pm 21.6 18.8 10.1 48 6.3 S 15 20 8 11 1015.1 1014.7 0.0
21/05:30pm 21.9 20.2 11.3 51 5.9 S 11 20 6 11 1015.4 1015.1 0.0
21/05:00pm 22.0 19.3 11.7 52 5.8 SSW 17 26 9 14 1015.7 1015.4 0.0
21/04:30pm 21.1 18.3 11.4 54 5.4 S 17 28 9 15 1015.7 1015.4 0.0
21/04:00pm 22.3 19.3 12.0 52 5.8 S 19 28 10 15 1015.7 1015.4 0.0
21/03:30pm 21.7 19.1 10.8 50 6.0 S 15 24 8 13 1015.6 1015.3 0.0
21/03:00pm 22.3 20.2 11.1 49 6.2 SSW 13 22 7 12 1015.8 1015.5 0.0
21/02:30pm 22.1 19.5 10.6 48 6.3 SSW 15 22 8 12 1015.8 1015.5 0.0
21/02:00pm 22.3 20.5 10.8 48 6.4 SW 11 20 6 11 1015.7 1015.4 0.0
21/01:30pm 21.1 18.6 9.7 48 6.2 SSW 13 22 7 12 1016.0 1015.7 0.0
21/01:00pm 21.4 19.1 10.3 49 6.1 S 13 20 7 11 1016.2 1015.9 0.0
21/12:30pm 22.0 20.3 11.1 50 6.1 S 11 24 6 13 1016.3 1016.0 0.0
21/12:00pm 19.7 17.5 10.7 56 4.9 SSW 13 22 7 12 1016.5 1016.2 0.0
21/11:30am 19.4 17.3 9.9 54 5.1 SW 11 19 6 10 1016.5 1016.2 0.0
21/11:00am 17.9 16.1 9.5 58 4.4 SW 9 19 5 10 1016.5 1016.2 0.0
21/10:30am 16.9 14.6 10.3 65 3.5 WSW 13 19 7 10 1016.5 1016.2 0.0
21/10:00am 16.5 14.6 10.4 67 3.2 WSW 11 17 6 9 1016.2 1015.9 0.0
21/09:30am 16.3 15.1 11.7 74 2.5 W 9 13 5 7 1016.0 1015.7 0.0
21/09:00am 14.2 13.9 12.6 90 0.9 WNW 6 9 3 5 1015.7 1015.4 0.2
21/08:30am 12.2 11.6 12.2 100 0.0 NW 7 9 4 5 1015.5 1015.2 0.2
21/08:00am 11.2 10.4 11.2 100 0.0 WSW 6 9 3 5 1015.0 1014.6 0.2
21/07:30am 8.9 7.5 8.9 100 0.0 SW 6 6 3 3 1014.5 1014.1 0.2
21/07:00am 6.3 4.3 6.3 100 0.0 SW 6 6 3 3 1014.1 1013.7 0.2
21/06:30am 6.4 4.4 6.4 100 0.0 SW 6 7 3 4 1013.5 1013.2 0.2
21/06:00am 6.3 4.7 6.3 100 0.0 SW 4 6 2 3 1013.2 1012.9 0.2
21/05:30am 6.5 4.6 6.5 100 0.0 SW 6 6 3 3 1013.0 1012.7 0.2
21/05:00am 6.2 4.2 6.2 100 0.0 SW 6 6 3 3 1012.7 1012.4 0.2
21/04:30am 7.3 5.5 7.3 100 0.0 SW 6 6 3 3 1012.6 1012.3 0.2
21/04:00am 7.0 5.1 6.9 99 0.0 SW 6 7 3 4 1012.5 1012.2 0.2
21/03:30am 7.7 6.3 7.4 98 0.1 SW 4 6 2 3 1012.3 1012.0 0.2
21/03:00am 7.9 6.9 7.5 97 0.2 SW 2 2 1 1 1012.3 1012.0 0.2
21/02:30am 9.2 8.2 8.7 97 0.2 SW 4 6 2 3 1012.3 1012.0 0.2
21/02:00am 10.3 9.5 9.7 96 0.3 SW 4 4 2 2 1012.0 1011.7 0.2
21/01:30am 11.1 10.9 10.5 96 0.3 SW 2 4 1 2 1012.0 1011.7 0.2
21/01:00am 11.0 10.4 10.4 96 0.3 SW 4 4 2 2 1011.8 1011.5 0.2
21/12:30am 10.8 10.8 9.7 93 0.6 CALM 0 0 0 0 1011.6 1011.3 0.2
21/12:00am 10.2 8.8 8.8 91 0.7 SSW 6 7 3 4 1011.4 1011.1 0.2
 
Date/Time
EDT
Temp
°C
App
Temp
°C
Dew
Point
°C
Rel
Hum
%
Delta-T
°C
Wind Press
QNH
hPa
Press
MSL
hPa
Rain since
9am
mm
Dir  Spd
km/h
Gust
km/h
Spd
kts
Gust
kts
20/11:30pm 10.6 9.2 9.4 92 0.6 SSW 7 7 4 4 1011.2 1010.9 0.2
20/11:00pm 10.2 8.2 8.5 89 0.8 SSW 9 9 5 5 1011.1 1010.8 0.2
20/10:30pm 10.4 8.7 8.5 88 0.9 SSW 7 9 4 5 1010.9 1010.6 0.2
20/10:00pm 10.4 8.8 8.0 85 1.2 SSW 6 7 3 4 1010.6 1010.3 0.2
20/09:30pm 11.1 9.3 8.1 82 1.5 SSW 7 9 4 5 1010.3 1010.0 0.2
20/09:00pm 12.2 9.6 7.9 75 2.1 S 11 17 6 9 1010.1 1009.8 0.2
20/08:30pm 13.6 9.5 8.0 69 2.8 SSW 19 30 10 16 1009.8 1009.5 0.2
20/08:00pm 14.2 9.7 8.6 69 2.8 S 22 30 12 16 1009.7 1009.4 0.2
20/07:30pm 15.0 10.1 8.3 64 3.4 SSW 24 35 13 19 1009.1 1008.8 0.2
20/07:00pm 15.1 9.6 7.4 60 3.8 SSW 26 39 14 21 1008.6 1008.2 0.2
20/06:30pm 15.2 10.1 9.1 67 3.1 SSW 26 37 14 20 1008.1 1007.7 0.2
20/06:00pm 15.7 11.1 9.8 68 3.1 SSW 24 37 13 20 1007.9 1007.5 0.2
20/05:30pm 15.6 10.2 9.5 67 3.2 SSW 28 35 15 19 1007.5 1007.1 0.2
20/05:00pm 16.0 10.3 9.7 66 3.3 SSW 30 39 16 21 1007.1 1006.7 0.2
20/04:30pm 16.2 10.7 9.2 63 3.6 SSW 28 39 15 21 1006.9 1006.5 0.2
20/04:00pm 16.7 10.6 9.6 63 3.7 SSW 32 44 17 24 1006.3 1005.9 0.2
20/03:30pm 16.5 10.4 10.6 68 3.2 SSW 33 46 18 25 1006.1 1005.7 0.2
20/03:00pm 15.6 9.5 9.9 69 3.0 S 32 46 17 25 1005.5 1005.2 0.2
20/02:30pm 16.4 10.9 10.7 69 3.1 SSW 30 44 16 24 1005.0 1004.7 0.2
20/02:00pm 16.3 10.0 11.2 72 2.8 SSW 35 50 19 27 1004.6 1004.3 0.2
20/01:30pm 17.7 12.2 11.7 68 3.3 SSW 32 46 17 25 1004.0 1003.7 0.2
20/01:11pm 17.1 11.3 12.6 75 2.5 SSW 35 54 19 29 1003.9 1003.6 0.2
20/01:00pm 15.7 10.4 13.2 85 1.4 SSW 33 50 18 27 1004.0 1003.7 0.2
20/12:30pm 16.8 12.0 14.1 84 1.5 SW 32 46 17 25 1003.5 1003.2 0.2
20/12:00pm 15.6 9.9 13.1 85 1.4 SW 35 46 19 25 1003.1 1002.8 0.2
20/11:30am 14.8 10.4 14.0 95 0.5 SW 30 43 16 23 1002.5 1002.2 0.2
20/11:00am 14.6 11.4 14.3 98 0.2 SW 24 39 13 21 1001.8 1001.4 0.2
20/10:30am 13.8 10.1 13.8 100 0.0 SW 26 37 14 20 1000.9 1000.5 0.2
20/10:00am 13.7 11.1 13.7 100 0.0 SW 20 32 11 17 1000.2 999.8 0.2
20/09:30am 13.8 10.4 13.8 100 0.0 SSW 24 32 13 17 999.5 999.1 0.0
20/09:00am 14.2 11.7 14.2 100 0.0 SSW 20 32 11 17 999.0 998.6 28.8
20/08:30am 14.4 12.2 14.4 100 0.0 SW 19 30 10 16 998.2 997.8 28.8
20/08:00am 14.7 13.0 14.7 100 0.0 WSW 17 28 9 15 997.6 997.3 28.8
20/07:30am 14.2 12.3 14.2 100 0.0 SW 17 22 9 12 996.8 996.5 28.8
20/07:00am 14.4 11.6 14.4 100 0.0 WSW 22 33 12 18 996.4 996.1 28.6
20/06:30am 14.5 13.9 14.5 100 0.0 W 11 17 6 9 995.3 994.9 28.6
20/06:00am 14.5 14.2 14.5 100 0.0 WNW 9 13 5 7 994.6 994.2 28.4
20/05:30am 14.4 13.3 14.4 100 0.0 N 13 20 7 11 993.7 993.3 28.2
20/05:00am 14.0 12.4 14.0 100 0.0 NE 15 24 8 13 993.1 992.7 28.0
20/04:30am 13.8 12.2 13.8 100 0.0 ENE 15 22 8 12 993.7 993.3 28.0
20/04:00am 13.4 10.3 13.4 100 0.0 NE 22 35 12 19 994.0 993.6 28.0
20/03:30am 13.2 9.3 13.2 100 0.0 ENE 26 37 14 20 995.0 994.6 27.2
20/03:13am 13.2 9.6 13.2 100 0.0 ENE 24 37 13 20 996.3 996.0 26.6
20/03:00am 13.2 11.7 13.2 100 0.0 ENE 13 22 7 12 998.4 998.0 25.2
20/02:51am 13.2 11.7 13.2 100 0.0 E 13 20 7 11 999.2 998.8 23.6
20/02:30am 13.3 11.9 13.3 100 0.0 SE 13 19 7 10 1001.2 1000.8 19.6
20/02:00am 13.4 12.4 13.4 100 0.0 S 11 17 6 9 1002.4 1002.1 15.6
20/01:30am 13.7 13.5 13.7 100 0.0 SSW 7 11 4 6 1003.5 1003.2 12.6
20/01:00am 14.2 12.1 13.7 97 0.3 SW 17 24 9 13 1005.1 1004.8 7.6
20/12:30am 15.0 12.9 13.7 92 0.7 WSW 17 24 9 13 1003.3 1003.0 3.2
20/12:11am 16.0 15.6 13.1 83 1.6 SSE 7 13 4 7 1001.9 1001.5 0.4
20/12:00am 16.4 15.8 12.4 77 2.2 E 7 13 4 7 999.8 999.4 0.0
 
Date/Time
EDT
Temp
°C
App
Temp
°C
Dew
Point
°C
Rel
Hum
%
Delta-T
°C
Wind Press
QNH
hPa
Press
MSL
hPa
Rain since
9am
mm
Dir  Spd
km/h
Gust
km/h
Spd
kts
Gust
kts
19/11:30pm 16.7 13.5 11.4 71 2.9 E 19 30 10 16 997.9 997.5 0.0
19/11:00pm 16.7 13.4 10.8 68 3.2 ENE 19 32 10 17 998.7 998.3 0.0
19/10:30pm 16.9 12.9 10.5 66 3.4 E 22 33 12 18 999.8 999.4 0.0
19/10:00pm 17.7 13.7 10.3 62 4.0 E 22 33 12 18 1000.9 1000.5 0.0
19/09:30pm 18.3 14.4 9.6 57 4.6 E 20 35 11 19 1001.4 1001.0 0.0
19/09:00pm 19.0 15.3 9.5 54 5.1 ENE 19 32 10 17 1001.9 1001.5 0.0
19/08:30pm 20.5 17.6 9.7 50 5.8 E 15 26 8 14 1002.5 1002.2 0.0
19/08:00pm 20.9 19.4 11.8 56 5.1 SE 11 17 6 9 1003.1 1002.8 0.0
19/07:30pm 20.6 17.8 11.2 55 5.2 SE 17 20 9 11 1003.1 1002.8 0.0
19/07:00pm 20.9 18.0 11.0 53 5.5 SSE 17 22 9 12 1003.6 1003.3 0.0
19/06:30pm 20.9 17.3 10.7 52 5.6 S 20 28 11 15 1004.8 1004.5 0.0
19/06:00pm 25.7 23.0 3.6 24 11.0 SSE 7 11 4 6 1005.4 1005.1 0.0
19/05:30pm 25.8 23.2 3.1 23 11.2 SE 6 11 3 6 1006.2 1005.8 0.0
19/05:00pm 26.6 23.8 3.2 22 11.7 E 7 15 4 8 1006.5 1006.1 0.0

Other Formats:

Comma delimited format used in spreadsheet applications
http://www.bom.gov.au/fwo/IDV60801/IDV60801.94840.axf

JavaScript Object Notation format (JSON) in row-major order
http://www.bom.gov.au/fwo/IDV60801/IDV60801.94840.json